createdAt,value
2023-04-01T00:00:08.804Z,106.60
2023-04-01T00:01:08.798Z,68.80
2023-04-01T00:02:08.863Z,68.10
2023-04-01T00:03:08.883Z,52.10
2023-04-01T00:04:08.821Z,66.50
2023-04-01T00:05:08.750Z,64.90
2023-04-01T00:06:08.738Z,68.10
2023-04-01T00:07:08.746Z,53.20
2023-04-01T00:08:08.714Z,41.40
2023-04-01T00:09:08.709Z,52.90
2023-04-01T00:10:08.690Z,54.80
2023-04-01T00:11:08.689Z,65.00
2023-04-01T00:12:08.680Z,53.70
2023-04-01T00:13:08.662Z,69.40
2023-04-01T00:14:08.655Z,44.00
2023-04-01T00:15:08.640Z,46.00
2023-04-01T00:16:19.807Z,69.30
2023-04-01T00:17:08.718Z,54.20
2023-04-01T00:18:08.609Z,54.10
2023-04-01T00:19:08.623Z,55.10
2023-04-01T00:20:08.585Z,40.60
2023-04-01T00:21:08.575Z,76.50
2023-04-01T00:22:08.561Z,49.50
2023-04-01T00:23:08.550Z,47.50
2023-04-01T00:24:08.547Z,49.60
2023-04-01T00:25:08.527Z,53.20
2023-04-01T00:26:08.511Z,41.70
2023-04-01T00:27:08.504Z,49.70
2023-04-01T00:28:08.489Z,61.10
2023-04-01T00:29:08.508Z,37.60
2023-04-01T00:30:08.476Z,59.20
2023-04-01T00:31:08.570Z,37.70
2023-04-01T00:32:08.447Z,40.70
2023-04-01T00:33:08.520Z,42.30
2023-04-01T00:34:08.449Z,55.70
2023-04-01T00:35:08.455Z,43.40
2023-04-01T00:36:08.467Z,58.80
2023-04-01T00:37:08.411Z,52.10
2023-04-01T00:38:08.380Z,39.00
2023-04-01T00:39:08.391Z,50.80
2023-04-01T00:40:08.370Z,72.20
2023-04-01T00:41:08.349Z,46.50
2023-04-01T00:42:08.334Z,41.40
2023-04-01T00:43:08.328Z,48.60
2023-04-01T00:44:08.356Z,53.10
2023-04-01T00:45:08.316Z,51.70
2023-04-01T00:46:08.306Z,55.60
2023-04-01T00:47:08.401Z,65.00
2023-04-01T00:48:08.359Z,89.70
2023-04-01T00:49:08.267Z,73.50
2023-04-01T00:50:08.248Z,60.10
2023-04-01T00:51:08.275Z,105.90
2023-04-01T00:52:08.232Z,89.80
2023-04-01T00:53:08.221Z,65.10
2023-04-01T00:54:08.199Z,90.80
2023-04-01T00:55:08.199Z,54.00
2023-04-01T00:56:08.199Z,83.00
2023-04-01T00:57:08.213Z,53.80
2023-04-01T00:58:08.155Z,44.70
2023-04-01T00:59:08.158Z,68.40
2023-04-01T01:00:08.142Z,48.80
2023-04-01T01:01:08.145Z,87.70
2023-04-01T01:02:08.175Z,87.50
2023-04-01T01:03:08.153Z,70.90
2023-04-01T01:04:08.112Z,71.00
2023-04-01T01:05:08.079Z,66.10
2023-04-01T01:06:08.066Z,83.70
2023-04-01T01:07:08.099Z,75.90
2023-04-01T01:08:08.053Z,78.50
2023-04-01T01:09:08.031Z,73.20
2023-04-01T01:10:08.027Z,77.90
2023-04-01T01:11:08.014Z,77.90
2023-04-01T01:12:07.995Z,58.50
2023-04-01T01:13:07.993Z,60.70
2023-04-01T01:14:07.983Z,77.90
2023-04-01T01:15:07.966Z,82.90
2023-04-01T01:16:07.976Z,70.60
2023-04-01T01:17:07.947Z,97.50
2023-04-01T01:18:07.968Z,63.90
2023-04-01T01:19:07.921Z,65.20
2023-04-01T01:20:15.607Z,68.40
2023-04-01T01:21:08.928Z,76.20
2023-04-01T01:22:07.884Z,77.50
2023-04-01T01:23:07.909Z,82.10
2023-04-01T01:24:07.862Z,55.90
2023-04-01T01:25:07.853Z,56.20
2023-04-01T01:26:07.843Z,45.10
2023-04-01T01:27:07.827Z,50.90
2023-04-01T01:28:07.817Z,70.90
2023-04-01T01:29:07.804Z,77.90
2023-04-01T01:30:07.796Z,42.40
2023-04-01T01:31:07.881Z,49.90
2023-04-01T01:32:07.774Z,74.80
2023-04-01T01:33:07.931Z,52.40
2023-04-01T01:34:07.767Z,47.90
2023-04-01T01:35:07.736Z,58.60
2023-04-01T01:36:07.772Z,46.90
2023-04-01T01:37:07.718Z,84.40
2023-04-01T01:38:07.704Z,47.20
2023-04-01T01:39:07.741Z,58.10
2023-04-01T01:40:07.686Z,64.90
2023-04-01T01:41:07.680Z,54.10
2023-04-01T01:42:07.677Z,54.30
2023-04-01T01:43:07.672Z,68.90
2023-04-01T01:44:07.654Z,79.10
2023-04-01T01:45:07.676Z,65.40
2023-04-01T01:46:07.729Z,45.90
2023-04-01T01:47:07.636Z,61.30
2023-04-01T01:48:07.621Z,84.60
2023-04-01T01:49:07.585Z,85.30
2023-04-01T01:50:07.574Z,67.20
2023-04-01T01:51:07.555Z,67.30
2023-04-01T01:52:07.544Z,51.20
2023-04-01T01:53:07.534Z,69.60
2023-04-01T01:54:07.535Z,63.10
2023-04-01T01:55:07.536Z,66.60
2023-04-01T01:56:07.505Z,66.70
2023-04-01T01:57:07.536Z,71.00
2023-04-01T01:58:07.474Z,56.10
2023-04-01T01:59:07.488Z,63.40
2023-04-01T02:00:07.454Z,63.90
2023-04-01T02:01:07.481Z,55.30
2023-04-01T02:02:07.430Z,67.20
2023-04-01T02:03:07.534Z,109.50
2023-04-01T02:04:07.451Z,92.90
2023-04-01T02:05:07.405Z,78.10
2023-04-01T02:06:07.400Z,105.30
2023-04-01T02:07:07.379Z,89.40
2023-04-01T02:08:07.371Z,62.30
2023-04-01T02:09:07.367Z,89.60
2023-04-01T02:10:07.338Z,79.70
2023-04-01T02:11:07.358Z,103.60
2023-04-01T02:12:07.319Z,57.20
2023-04-01T02:13:07.306Z,65.70
2023-04-01T02:14:07.298Z,45.50
2023-04-01T02:15:07.291Z,54.40
2023-04-01T02:16:07.348Z,58.30
2023-04-01T02:17:07.263Z,112.10
2023-04-01T02:18:07.303Z,57.30
2023-04-01T02:19:07.239Z,56.70
2023-04-01T02:20:07.242Z,64.40
2023-04-01T02:21:07.215Z,72.60
2023-04-01T02:22:07.204Z,90.90
2023-04-01T02:23:07.192Z,71.50
2023-04-01T02:24:07.183Z,76.80
2023-04-01T02:25:07.223Z,77.80
2023-04-01T02:26:07.164Z,86.90
2023-04-01T02:27:07.172Z,64.50
2023-04-01T02:28:07.137Z,78.80
2023-04-01T02:29:07.125Z,74.30
2023-04-01T02:30:07.124Z,56.20
2023-04-01T02:31:07.183Z,51.60
2023-04-01T02:32:07.087Z,59.10
2023-04-01T02:33:07.210Z,70.10
2023-04-01T02:34:07.066Z,59.30
2023-04-01T02:35:07.063Z,66.70
2023-04-01T02:36:07.094Z,81.60
2023-04-01T02:37:07.034Z,70.70
2023-04-01T02:38:07.033Z,56.80
2023-04-01T02:39:07.012Z,41.10
2023-04-01T02:40:07.002Z,64.40
2023-04-01T02:41:06.991Z,71.60
2023-04-01T02:42:06.975Z,127.80
2023-04-01T02:43:06.995Z,40.90
2023-04-01T02:44:06.957Z,50.80
2023-04-01T02:45:06.944Z,52.20
2023-04-01T02:46:06.929Z,44.30
2023-04-01T02:47:07.077Z,48.00
2023-04-01T02:48:06.999Z,117.10
2023-04-01T02:49:06.897Z,90.30
2023-04-01T02:50:06.889Z,48.70
2023-04-01T02:51:06.875Z,64.90
2023-04-01T02:52:06.870Z,76.50
2023-04-01T02:53:06.861Z,56.00
2023-04-01T02:54:06.848Z,46.80
2023-04-01T02:55:06.835Z,81.50
2023-04-01T02:56:06.823Z,56.80
2023-04-01T02:57:06.847Z,81.60
2023-04-01T02:58:06.804Z,71.00
2023-04-01T02:59:06.829Z,86.70
2023-04-01T03:00:06.777Z,58.40
2023-04-01T03:01:06.838Z,65.40
2023-04-01T03:02:06.776Z,104.00
2023-04-01T03:03:06.844Z,57.90
2023-04-01T03:04:06.772Z,78.10
2023-04-01T03:05:06.728Z,77.90
2023-04-01T03:06:06.716Z,51.50
2023-04-01T03:07:06.733Z,62.60
2023-04-01T03:08:06.691Z,134.20
2023-04-01T03:09:06.676Z,71.90
2023-04-01T03:10:06.665Z,48.90
2023-04-01T03:11:06.652Z,45.40
2023-04-01T03:12:06.644Z,149.00
2023-04-01T03:13:06.629Z,96.80
2023-04-01T03:14:06.625Z,103.10
2023-04-01T03:15:11.273Z,96.60
2023-04-01T03:16:06.646Z,172.60
2023-04-01T03:17:06.583Z,80.50
2023-04-01T03:18:06.612Z,129.70
2023-04-01T03:19:06.571Z,130.10
2023-04-01T03:20:06.560Z,100.10
2023-04-01T03:21:06.538Z,79.90
2023-04-01T03:22:06.536Z,157.90
2023-04-01T03:23:06.526Z,112.40
2023-04-01T03:24:06.507Z,96.70
2023-04-01T03:25:06.490Z,66.70
2023-04-01T03:26:06.491Z,112.00
2023-04-01T03:27:06.468Z,121.60
2023-04-01T03:28:06.463Z,117.00
2023-04-01T03:29:06.458Z,80.60
2023-04-01T03:30:06.468Z,74.90
2023-04-01T03:31:06.487Z,77.10
2023-04-01T03:32:06.411Z,98.80
2023-04-01T03:33:06.428Z,83.60
2023-04-01T03:34:06.397Z,89.80
2023-04-01T03:35:06.377Z,94.20
2023-04-01T03:36:06.382Z,93.00
2023-04-01T03:37:06.354Z,92.90
2023-04-01T03:38:06.344Z,74.10
2023-04-01T03:39:06.332Z,80.00
2023-04-01T03:40:06.330Z,115.70
2023-04-01T03:41:06.309Z,90.10
2023-04-01T03:42:06.298Z,69.10
2023-04-01T03:43:06.302Z,84.80
2023-04-01T03:44:06.275Z,59.90
2023-04-01T03:45:06.260Z,54.80
2023-04-01T03:46:06.284Z,63.70
2023-04-01T03:47:06.268Z,85.20
2023-04-01T03:48:06.350Z,57.10
2023-04-01T03:49:06.219Z,57.00
2023-04-01T03:50:06.208Z,67.90
2023-04-01T03:51:06.196Z,92.50
2023-04-01T03:52:06.183Z,123.30
2023-04-01T03:53:06.176Z,83.20
2023-04-01T03:54:06.162Z,59.80
2023-04-01T03:55:06.160Z,70.00
2023-04-01T03:56:06.145Z,102.50
2023-04-01T03:57:06.217Z,78.50
2023-04-01T03:58:06.120Z,73.90
2023-04-01T03:59:06.112Z,98.80
2023-04-01T04:00:06.099Z,78.50
2023-04-01T04:01:06.082Z,55.10
2023-04-01T04:02:06.088Z,46.00
2023-04-01T04:03:06.147Z,49.70
2023-04-01T04:04:06.109Z,87.00
2023-04-01T04:05:06.039Z,62.80
2023-04-01T04:06:06.029Z,46.20
2023-04-01T04:07:06.021Z,62.60
2023-04-01T04:08:06.009Z,58.50
2023-04-01T04:09:05.998Z,55.80
2023-04-01T04:10:05.986Z,64.50
2023-04-01T04:11:05.980Z,84.40
2023-04-01T04:12:05.964Z,55.70
2023-04-01T04:13:05.950Z,88.20
2023-04-01T04:14:05.949Z,55.70
2023-04-01T04:15:05.929Z,66.00
2023-04-01T04:16:05.962Z,63.50
2023-04-01T04:17:05.904Z,42.40
2023-04-01T04:18:05.955Z,57.00
2023-04-01T04:19:05.905Z,71.10
2023-04-01T04:20:05.872Z,91.80
2023-04-01T04:21:05.863Z,100.30
2023-04-01T04:22:05.855Z,49.60
2023-04-01T04:23:05.848Z,51.10
2023-04-01T04:24:05.837Z,72.90
2023-04-01T04:25:05.820Z,44.70
2023-04-01T04:26:05.814Z,52.90
2023-04-01T04:27:05.792Z,95.00
2023-04-01T04:28:05.788Z,70.10
2023-04-01T04:29:05.766Z,74.40
2023-04-01T04:30:05.758Z,66.90
2023-04-01T04:31:05.874Z,61.30
2023-04-01T04:32:05.787Z,62.30
2023-04-01T04:33:05.855Z,42.30
2023-04-01T04:34:05.714Z,67.10
2023-04-01T04:35:05.728Z,52.40
2023-04-01T04:36:05.730Z,68.80
2023-04-01T04:37:05.676Z,87.60
2023-04-01T04:38:05.667Z,53.20
2023-04-01T04:39:05.655Z,66.30
2023-04-01T04:40:05.662Z,46.30
2023-04-01T04:41:05.629Z,60.60
2023-04-01T04:42:05.622Z,67.30
2023-04-01T04:43:05.608Z,83.40
2023-04-01T04:44:05.597Z,84.30
2023-04-01T04:45:05.586Z,57.70
2023-04-01T04:46:05.578Z,66.00
2023-04-01T04:47:05.611Z,84.50
2023-04-01T04:48:05.581Z,47.20
2023-04-01T04:49:05.544Z,68.60
2023-04-01T04:50:05.531Z,109.40
2023-04-01T04:51:05.548Z,43.50
2023-04-01T04:52:05.518Z,45.90
2023-04-01T04:53:05.496Z,77.00
2023-04-01T04:54:05.487Z,40.90
2023-04-01T04:55:05.474Z,55.30
2023-04-01T04:56:05.468Z,47.00
2023-04-01T04:57:05.517Z,45.60
2023-04-01T04:58:05.443Z,41.20
2023-04-01T04:59:05.432Z,59.30
2023-04-01T05:00:05.420Z,53.50
2023-04-01T05:01:05.432Z,66.20
2023-04-01T05:02:05.435Z,50.10
2023-04-01T05:03:05.477Z,48.00
2023-04-01T05:04:05.386Z,41.10
2023-04-01T05:05:05.360Z,43.80
2023-04-01T05:06:05.357Z,81.90
2023-04-01T05:07:05.372Z,44.40
2023-04-01T05:08:05.325Z,46.60
2023-04-01T05:09:05.327Z,43.10
2023-04-01T05:10:05.312Z,52.80
2023-04-01T05:11:05.289Z,45.40
2023-04-01T05:12:05.293Z,61.60
2023-04-01T05:13:05.272Z,56.20
2023-04-01T05:14:05.259Z,78.00
2023-04-01T05:15:05.248Z,52.00
2023-04-01T05:16:05.239Z,37.10
2023-04-01T05:17:05.326Z,71.70
2023-04-01T05:18:05.283Z,48.80
2023-04-01T05:19:05.201Z,40.20
2023-04-01T05:20:05.196Z,33.90
2023-04-01T05:21:05.178Z,49.00
2023-04-01T05:22:05.174Z,40.50
2023-04-01T05:23:05.184Z,50.30
2023-04-01T05:24:05.145Z,44.50
2023-04-01T05:25:05.135Z,37.40
2023-04-01T05:26:05.124Z,36.40
2023-04-01T05:27:05.118Z,50.00
2023-04-01T05:28:05.101Z,62.70
2023-04-01T05:29:05.091Z,36.30
2023-04-01T05:30:05.076Z,45.90
2023-04-01T05:31:05.110Z,48.40
2023-04-01T05:32:05.057Z,40.80
2023-04-01T05:33:05.086Z,41.80
2023-04-01T05:34:05.035Z,46.80
2023-04-01T05:35:05.024Z,46.10
2023-04-01T05:36:05.032Z,51.00
2023-04-01T05:37:05.011Z,40.40
2023-04-01T05:38:04.987Z,56.00
2023-04-01T05:39:05.000Z,59.10
2023-04-01T05:40:04.968Z,43.60
2023-04-01T05:41:04.952Z,41.10
2023-04-01T05:42:04.944Z,66.70
2023-04-01T05:43:04.940Z,68.40
2023-04-01T05:44:04.921Z,41.30
2023-04-01T05:45:04.906Z,44.60
2023-04-01T05:46:04.946Z,39.60
2023-04-01T05:47:04.886Z,28.20
2023-04-01T05:48:04.932Z,43.30
2023-04-01T05:49:04.863Z,53.70
2023-04-01T05:50:04.858Z,46.00
2023-04-01T05:51:04.839Z,33.50
2023-04-01T05:52:04.832Z,30.90
2023-04-01T05:53:04.826Z,40.80
2023-04-01T05:54:04.808Z,42.80
2023-04-01T05:55:04.817Z,42.80
2023-04-01T05:56:04.785Z,45.10
2023-04-01T05:57:04.838Z,33.00
2023-04-01T05:58:04.766Z,34.60
2023-04-01T05:59:04.748Z,40.90
2023-04-01T06:00:04.804Z,50.20
2023-04-01T06:01:10.209Z,40.80
2023-04-01T06:02:04.719Z,45.30
2023-04-01T06:03:04.895Z,39.40
2023-04-01T06:04:04.854Z,42.20
2023-04-01T06:05:04.692Z,39.80
2023-04-01T06:06:04.674Z,55.40
2023-04-01T06:07:04.667Z,57.90
2023-04-01T06:08:04.643Z,32.10
2023-04-01T06:09:04.634Z,28.50
2023-04-01T06:10:04.625Z,33.00
2023-04-01T06:11:04.640Z,45.30
2023-04-01T06:12:04.614Z,36.00
2023-04-01T06:13:04.591Z,31.20
2023-04-01T06:14:04.582Z,31.00
2023-04-01T06:15:04.566Z,36.50
2023-04-01T06:16:04.569Z,25.00
2023-04-01T06:17:04.542Z,25.50
2023-04-01T06:18:04.595Z,26.90
2023-04-01T06:19:04.521Z,28.20
2023-04-01T06:20:04.519Z,37.50
2023-04-01T06:21:04.513Z,27.50
2023-04-01T06:22:04.491Z,23.70
2023-04-01T06:23:04.483Z,32.70
2023-04-01T06:24:04.464Z,23.90
2023-04-01T06:25:04.453Z,23.70
2023-04-01T06:26:04.449Z,19.30
2023-04-01T06:27:04.453Z,22.00
2023-04-01T06:28:04.421Z,28.60
2023-04-01T06:29:04.411Z,33.40
2023-04-01T06:30:04.400Z,15.50
2023-04-01T06:31:04.427Z,22.60
2023-04-01T06:32:04.406Z,16.80
2023-04-01T06:33:04.465Z,27.30
2023-04-01T06:34:04.359Z,18.90
2023-04-01T06:35:04.347Z,17.30
2023-04-01T06:36:04.433Z,14.60
2023-04-01T06:37:04.326Z,23.20
2023-04-01T06:38:04.321Z,18.00
2023-04-01T06:39:04.310Z,12.90
2023-04-01T06:40:04.309Z,12.80
2023-04-01T06:41:04.282Z,13.70
2023-04-01T06:42:04.274Z,15.90
2023-04-01T06:43:04.291Z,13.00
2023-04-01T06:44:04.250Z,15.60
2023-04-01T06:45:04.244Z,16.00
2023-04-01T06:46:04.247Z,19.10
2023-04-01T06:47:04.216Z,15.30
2023-04-01T06:48:04.227Z,14.80
2023-04-01T06:49:04.194Z,14.80
2023-04-01T06:50:04.216Z,21.90
2023-04-01T06:51:04.175Z,15.60
2023-04-01T06:52:04.164Z,16.60
2023-04-01T06:53:04.155Z,14.90
2023-04-01T06:54:04.161Z,13.10
2023-04-01T06:55:04.129Z,16.70
2023-04-01T06:56:04.117Z,15.40
2023-04-01T06:57:04.147Z,15.40
2023-04-01T06:58:04.096Z,13.60
2023-04-01T06:59:04.112Z,16.40
2023-04-01T07:00:04.094Z,16.10
2023-04-01T07:01:04.094Z,15.60
2023-04-01T07:02:04.055Z,19.90
2023-04-01T07:03:06.632Z,21.70
2023-04-01T07:04:04.045Z,15.50
2023-04-01T07:05:04.018Z,14.40
2023-04-01T07:06:04.004Z,11.00
2023-04-01T07:07:03.994Z,16.00
2023-04-01T07:08:03.993Z,12.30
2023-04-01T07:09:05.611Z,16.10
2023-04-01T07:10:03.962Z,13.70
2023-04-01T07:11:03.952Z,11.50
2023-04-01T07:12:03.934Z,11.80
2023-04-01T07:13:03.934Z,11.90
2023-04-01T07:14:03.915Z,13.80
2023-04-01T07:15:03.925Z,11.50
2023-04-01T07:16:03.886Z,9.20
2023-04-01T07:17:03.953Z,13.00
2023-04-01T07:18:03.896Z,11.00
2023-04-01T07:19:03.854Z,12.30
2023-04-01T07:20:03.847Z,10.70
2023-04-01T07:21:03.843Z,11.40
2023-04-01T07:22:03.820Z,9.10
2023-04-01T07:23:03.809Z,14.80
2023-04-01T07:24:03.797Z,10.50
2023-04-01T07:25:03.788Z,10.60
2023-04-01T07:26:03.774Z,11.30
2023-04-01T07:27:03.765Z,10.60
2023-04-01T07:28:03.763Z,10.50
2023-04-01T07:29:03.743Z,9.30
2023-04-01T07:30:03.729Z,11.80
2023-04-01T07:31:03.766Z,12.60
2023-04-01T07:32:03.706Z,8.10
2023-04-01T07:33:03.760Z,8.20
2023-04-01T07:34:03.690Z,10.70
2023-04-01T07:35:03.675Z,12.20
2023-04-01T07:36:03.702Z,9.30
2023-04-01T07:37:03.655Z,10.20
2023-04-01T07:38:03.640Z,11.90
2023-04-01T07:39:03.654Z,13.10
2023-04-01T07:40:03.618Z,9.20
2023-04-01T07:41:03.615Z,10.00
2023-04-01T07:42:03.598Z,11.40
2023-04-01T07:43:03.604Z,9.50
2023-04-01T07:44:03.587Z,8.50
2023-04-01T07:45:03.564Z,10.60
2023-04-01T07:46:03.574Z,8.20
2023-04-01T07:47:03.571Z,12.50
2023-04-01T07:48:03.561Z,11.60
2023-04-01T07:49:03.536Z,10.30
2023-04-01T07:50:03.518Z,10.80
2023-04-01T07:51:03.509Z,8.10
2023-04-01T07:52:03.489Z,9.10
2023-04-01T07:53:03.488Z,9.70
2023-04-01T07:54:03.493Z,11.00
2023-04-01T07:55:03.465Z,9.20
2023-04-01T07:56:03.442Z,7.20
2023-04-01T07:57:03.473Z,6.70
2023-04-01T07:58:03.415Z,9.70
2023-04-01T07:59:03.407Z,11.90
2023-04-01T08:00:03.397Z,10.30
2023-04-01T08:01:03.386Z,8.40
2023-04-01T08:02:03.392Z,9.60
2023-04-01T08:03:03.497Z,9.30
2023-04-01T08:04:03.504Z,10.10
2023-04-01T08:05:03.408Z,9.10
2023-04-01T08:06:03.328Z,10.10
2023-04-01T08:07:03.315Z,8.00
2023-04-01T08:08:03.307Z,11.00
2023-04-01T08:09:03.295Z,8.70
2023-04-01T08:10:03.281Z,12.40
2023-04-01T08:11:03.270Z,8.00
2023-04-01T08:12:03.260Z,7.90
2023-04-01T08:13:03.245Z,10.30
2023-04-01T08:14:03.230Z,9.00
2023-04-01T08:15:03.224Z,8.10
2023-04-01T08:16:03.227Z,8.70
2023-04-01T08:17:03.209Z,5.50
2023-04-01T08:18:03.219Z,8.50
2023-04-01T08:19:03.196Z,9.50
2023-04-01T08:20:03.157Z,6.70
2023-04-01T08:21:03.143Z,7.50
2023-04-01T08:22:03.160Z,6.60
2023-04-01T08:23:03.125Z,6.80
2023-04-01T08:24:03.110Z,5.90
2023-04-01T08:25:03.126Z,9.10
2023-04-01T08:26:03.092Z,8.30
2023-04-01T08:27:03.080Z,7.60
2023-04-01T08:28:03.077Z,5.10
2023-04-01T08:29:03.055Z,6.30
2023-04-01T08:30:03.059Z,8.40
2023-04-01T08:31:03.045Z,6.40
2023-04-01T08:32:03.127Z,5.20
2023-04-01T08:33:03.035Z,5.20
2023-04-01T08:34:03.005Z,5.40
2023-04-01T08:35:03.016Z,5.20
2023-04-01T08:36:03.058Z,5.70
2023-04-01T08:37:02.973Z,4.50
2023-04-01T08:38:02.956Z,4.20
2023-04-01T08:39:02.943Z,3.50
2023-04-01T08:40:02.944Z,4.10
2023-04-01T08:41:02.927Z,4.70
2023-04-01T08:42:02.917Z,3.50
2023-04-01T08:43:02.908Z,6.00
2023-04-01T08:44:02.887Z,6.00
2023-04-01T08:45:02.873Z,5.70
2023-04-01T08:46:02.922Z,4.90
2023-04-01T08:47:02.854Z,4.70
2023-04-01T08:48:02.919Z,3.40
2023-04-01T08:49:02.830Z,4.80
2023-04-01T08:50:02.840Z,4.80
2023-04-01T08:51:04.641Z,3.50
2023-04-01T08:52:02.801Z,4.70
2023-04-01T08:53:02.790Z,4.30
2023-04-01T08:54:02.776Z,5.40
2023-04-01T08:55:02.769Z,6.50
2023-04-01T08:56:02.755Z,4.00
2023-04-01T08:57:02.774Z,4.00
2023-04-01T08:58:02.736Z,4.70
2023-04-01T08:59:02.727Z,4.00
2023-04-01T09:00:02.706Z,4.50
2023-04-01T09:01:02.697Z,6.00
2023-04-01T09:02:02.695Z,3.50
2023-04-01T09:03:02.727Z,4.40
2023-04-01T09:04:02.756Z,3.80
2023-04-01T09:05:02.653Z,3.60
2023-04-01T09:06:02.642Z,5.30
2023-04-01T09:07:02.657Z,4.40
2023-04-01T09:08:02.620Z,5.50
2023-04-01T09:09:02.621Z,4.00
2023-04-01T09:10:02.610Z,4.30
2023-04-01T09:11:02.590Z,5.50
2023-04-01T09:12:02.591Z,4.30
2023-04-01T09:13:02.564Z,4.30
2023-04-01T09:14:02.575Z,6.50
2023-04-01T09:15:02.541Z,5.60
2023-04-01T09:16:02.584Z,4.70
2023-04-01T09:17:02.518Z,3.90
2023-04-01T09:18:02.529Z,5.20
2023-04-01T09:19:02.502Z,5.40
2023-04-01T09:20:02.491Z,6.80
2023-04-01T09:21:02.474Z,5.40
2023-04-01T09:22:02.468Z,5.90
2023-04-01T09:23:02.476Z,4.20
2023-04-01T09:24:02.441Z,3.10
2023-04-01T09:25:02.444Z,4.40
2023-04-01T09:26:02.424Z,3.00
2023-04-01T09:27:02.436Z,5.10
2023-04-01T09:28:02.398Z,4.80
2023-04-01T09:29:02.413Z,4.80
2023-04-01T09:30:02.389Z,6.50
2023-04-01T09:31:02.418Z,4.70
2023-04-01T09:32:02.356Z,4.70
2023-04-01T09:33:02.438Z,5.10
2023-04-01T09:34:02.333Z,5.30
2023-04-01T09:35:02.321Z,5.70
2023-04-01T09:36:02.365Z,4.20
2023-04-01T09:37:02.310Z,4.10
2023-04-01T09:38:02.288Z,3.20
2023-04-01T09:39:02.304Z,2.80
2023-04-01T09:40:02.286Z,4.00
2023-04-01T09:41:02.262Z,4.10
2023-04-01T09:42:02.245Z,5.60
2023-04-01T09:43:02.241Z,4.10
2023-04-01T09:44:02.224Z,5.60
2023-04-01T09:45:02.212Z,5.30
2023-04-01T09:46:02.216Z,3.30
2023-04-01T09:47:02.223Z,2.30
2023-04-01T09:48:02.222Z,1.50
2023-04-01T09:49:02.208Z,3.10
2023-04-01T09:50:02.217Z,2.90
2023-04-01T09:51:02.184Z,2.00
2023-04-01T09:52:02.147Z,2.00
2023-04-01T09:53:02.124Z,1.90
2023-04-01T09:54:02.113Z,2.40
2023-04-01T09:55:02.141Z,1.90
2023-04-01T09:56:02.095Z,2.50
2023-04-01T09:57:02.116Z,2.80
2023-04-01T09:58:02.077Z,2.30
2023-04-01T09:59:02.069Z,1.80
2023-04-01T10:00:02.046Z,4.00
2023-04-01T10:01:02.041Z,1.30
2023-04-01T10:02:02.055Z,1.40
2023-04-01T10:03:02.169Z,0.90
2023-04-01T10:04:02.000Z,6.80
2023-04-01T10:05:01.993Z,3.10
2023-04-01T10:06:02.011Z,1.90
2023-04-01T10:07:01.964Z,1.30
2023-04-01T10:08:01.961Z,1.80
2023-04-01T10:09:01.945Z,2.20
2023-04-01T10:10:01.940Z,1.00
2023-04-01T10:11:01.941Z,1.20
2023-04-01T10:12:01.901Z,0.80
2023-04-01T10:13:01.901Z,1.40
2023-04-01T10:14:01.893Z,1.00
2023-04-01T10:15:01.872Z,0.70
2023-04-01T10:16:01.866Z,1.30
2023-04-01T10:17:01.849Z,1.70
2023-04-01T10:18:01.876Z,1.00
2023-04-01T10:19:01.831Z,1.00
2023-04-01T10:20:01.816Z,1.10
2023-04-01T10:21:01.804Z,1.20
2023-04-01T10:22:01.805Z,2.10
2023-04-01T10:23:01.785Z,2.70
2023-04-01T10:24:01.766Z,2.30
2023-04-01T10:25:03.687Z,1.70
2023-04-01T10:26:01.746Z,2.50
2023-04-01T10:27:01.762Z,1.20
2023-04-01T10:28:01.724Z,0.90
2023-04-01T10:29:01.728Z,2.30
2023-04-01T10:30:01.731Z,2.10
2023-04-01T10:31:01.689Z,2.10
2023-04-01T10:32:01.706Z,5.50
2023-04-01T10:33:01.719Z,1.90
2023-04-01T10:34:01.654Z,1.40
2023-04-01T10:35:01.678Z,1.00
2023-04-01T10:36:01.649Z,1.90
2023-04-01T10:37:01.620Z,1.60
2023-04-01T10:38:01.607Z,1.20
2023-04-01T10:39:01.596Z,2.00
2023-04-01T10:40:01.582Z,1.60
2023-04-01T10:41:01.573Z,2.90
2023-04-01T10:42:01.561Z,2.70
2023-04-01T10:43:01.591Z,5.10
2023-04-01T10:44:01.541Z,1.50
2023-04-01T10:45:01.537Z,1.20
2023-04-01T10:46:01.636Z,2.40
2023-04-01T10:47:01.505Z,2.50
2023-04-01T10:48:01.590Z,1.90
2023-04-01T10:49:01.483Z,2.20
2023-04-01T10:50:01.479Z,2.30
2023-04-01T10:51:01.462Z,1.90
2023-04-01T10:52:01.448Z,5.30
2023-04-01T10:53:01.436Z,2.30
2023-04-01T10:54:01.427Z,1.10
2023-04-01T10:55:01.464Z,0.80
2023-04-01T10:56:01.401Z,1.60
2023-04-01T10:57:01.438Z,2.40
2023-04-01T10:58:01.381Z,2.00
2023-04-01T10:59:01.419Z,1.80
2023-04-01T11:00:01.356Z,3.10
2023-04-01T11:01:01.402Z,1.70
2023-04-01T11:02:11.412Z,1.40
2023-04-01T11:03:01.420Z,2.60
2023-04-01T11:04:01.311Z,7.20
2023-04-01T11:05:01.302Z,3.70
2023-04-01T11:06:01.295Z,3.60
2023-04-01T11:07:01.282Z,2.20
2023-04-01T11:08:06.669Z,4.00
2023-04-01T11:09:01.257Z,3.80
2023-04-01T11:10:01.244Z,3.60
2023-04-01T11:11:01.234Z,3.20
2023-04-01T11:12:01.228Z,3.80
2023-04-01T11:13:01.230Z,1.90
2023-04-01T11:14:01.202Z,1.70
2023-04-01T11:15:01.215Z,1.80
2023-04-01T11:16:01.220Z,2.60
2023-04-01T11:17:01.164Z,2.40
2023-04-01T11:18:01.206Z,2.60
2023-04-01T11:19:01.149Z,1.70
2023-04-01T11:20:01.144Z,3.40
2023-04-01T11:21:01.130Z,1.40
2023-04-01T11:22:01.112Z,2.60
2023-04-01T11:23:01.103Z,1.70
2023-04-01T11:24:05.571Z,3.30
2023-04-01T11:25:01.075Z,1.90
2023-04-01T11:26:01.061Z,4.20
2023-04-01T11:27:01.108Z,3.80
2023-04-01T11:28:01.045Z,2.10
2023-04-01T11:29:01.029Z,2.10
2023-04-01T11:30:01.084Z,1.70
2023-04-01T11:31:01.053Z,2.30
2023-04-01T11:32:01.009Z,3.00
2023-04-01T11:33:01.069Z,2.30
2023-04-01T11:34:00.972Z,3.60
2023-04-01T11:35:00.964Z,2.10
2023-04-01T11:36:00.959Z,3.20
2023-04-01T11:37:00.991Z,2.20
2023-04-01T11:38:00.931Z,3.20
2023-04-01T11:39:00.914Z,1.80
2023-04-01T11:40:00.905Z,3.00
2023-04-01T11:41:00.898Z,1.90
2023-04-01T11:42:00.893Z,2.00
2023-04-01T11:43:00.870Z,2.80
2023-04-01T11:44:00.860Z,2.20
2023-04-01T11:45:00.843Z,3.50
2023-04-01T11:46:00.874Z,3.10
2023-04-01T11:47:00.853Z,2.90
2023-04-01T11:48:00.851Z,3.20
2023-04-01T11:49:00.801Z,3.60
2023-04-01T11:50:00.792Z,3.50
2023-04-01T11:51:00.780Z,1.80
2023-04-01T11:52:00.770Z,1.40
2023-04-01T11:53:00.762Z,1.70
2023-04-01T11:54:00.757Z,2.90
2023-04-01T11:55:00.735Z,1.10
2023-04-01T11:56:00.728Z,2.30
2023-04-01T11:57:00.812Z,2.60
2023-04-01T11:58:00.703Z,3.50
2023-04-01T11:59:00.702Z,1.90
2023-04-01T12:00:00.680Z,3.40
2023-04-01T12:01:00.670Z,3.40
2023-04-01T12:02:00.662Z,1.90
2023-04-01T12:03:00.770Z,3.00
2023-04-01T12:04:00.834Z,2.40
2023-04-01T12:05:00.685Z,3.60
2023-04-01T12:06:00.612Z,2.80
2023-04-01T12:07:00.599Z,3.00
2023-04-01T12:08:00.590Z,2.00
2023-04-01T12:09:00.579Z,2.30
2023-04-01T12:10:00.567Z,2.70
2023-04-01T12:11:00.558Z,3.40
2023-04-01T12:12:00.566Z,1.40
2023-04-01T12:13:01.930Z,1.70
2023-04-01T12:14:00.522Z,3.50
2023-04-01T12:15:00.513Z,1.80
2023-04-01T12:16:00.541Z,1.70
2023-04-01T12:17:00.505Z,2.30
2023-04-01T12:18:00.514Z,1.90
2023-04-01T12:19:00.491Z,2.80
2023-04-01T12:20:00.466Z,2.80
2023-04-01T12:21:00.446Z,2.10
2023-04-01T12:22:00.431Z,3.10
2023-04-01T12:23:00.431Z,2.40
2023-04-01T12:24:00.410Z,2.40
2023-04-01T12:25:00.403Z,2.20
2023-04-01T12:26:00.389Z,3.60
2023-04-01T12:27:00.379Z,4.40
2023-04-01T12:28:00.364Z,2.60
2023-04-01T12:29:00.358Z,1.90
2023-04-01T12:30:00.347Z,1.80
2023-04-01T12:31:00.332Z,2.10
2023-04-01T12:32:00.409Z,1.10
2023-04-01T12:33:00.391Z,1.40
2023-04-01T12:34:00.315Z,2.00
2023-04-01T12:35:00.313Z,1.10
2023-04-01T12:36:00.325Z,2.40
2023-04-01T12:37:00.266Z,2.10
2023-04-01T12:38:00.265Z,2.20
2023-04-01T12:39:00.247Z,3.10
2023-04-01T12:40:00.245Z,2.50
2023-04-01T12:41:00.219Z,3.30
2023-04-01T12:42:00.207Z,3.10
2023-04-01T12:43:00.205Z,2.70
2023-04-01T12:44:00.185Z,1.40
2023-04-01T12:45:00.172Z,2.20
2023-04-01T12:46:00.210Z,3.10
2023-04-01T12:47:00.150Z,2.60
2023-04-01T12:48:00.210Z,3.40
2023-04-01T12:49:00.124Z,2.10
2023-04-01T12:50:00.139Z,2.20
2023-04-01T12:51:00.141Z,2.40
2023-04-01T12:52:00.150Z,4.40
2023-04-01T12:53:00.103Z,2.80
2023-04-01T12:54:00.102Z,2.40
2023-04-01T12:55:01.031Z,2.10
2023-04-01T12:56:00.057Z,1.80
2023-04-01T12:57:00.049Z,2.40
2023-04-01T12:58:00.035Z,1.70
2023-04-01T12:59:00.011Z,2.00
2023-04-01T13:00:00.004Z,1.40
2023-04-01T13:01:00.002Z,2.90